EZY408H EGGP-EGAA
Flight info
| Callsign | EZY408H |
|---|---|
| Flight time | N/A |
| Altitude | 24000 |
| Route | WAL M146 IPSET P6 BELZU |
| Aircraft | A320/M-SDE3FGHIRWY/LB1 |
Departure
| Time | 2026-05-03 22:59 |
|---|---|
| Airport | Liverpool John Lennon Airport (EGGP) |
Arrival
| Time | N/A |
|---|---|
| Airport | Belfast International Airport (EGAA) |
| Time | Latitude | Longitude | Altitude | Speed | Heading |
|---|---|---|---|---|---|
| 2026-05-03 22:26 | 53.33668 | -2.85439 | 95 ft | 0 kts | 356° |
| 2026-05-03 22:51 | 53.33662 | -2.85439 | 89 ft | 4 kts | 355° |
| 2026-05-03 22:52 | 53.33636 | -2.85438 | 89 ft | 4 kts | 23° |
| 2026-05-03 22:52 | 53.33617 | -2.85458 | 90 ft | 4 kts | 59° |
| 2026-05-03 22:52 | 53.33612 | -2.85499 | 89 ft | 4 kts | 89° |
| 2026-05-03 22:52 | 53.33611 | -2.85537 | 93 ft | 4 kts | 85° |
| 2026-05-03 22:53 | 53.33609 | -2.85582 | 90 ft | 3 kts | 86° |
| 2026-05-03 22:53 | 53.33609 | -2.85590 | 89 ft | 0 kts | 86° |
| 2026-05-03 22:55 | 53.33609 | -2.85589 | 89 ft | 1 kts | 86° |
| 2026-05-03 22:55 | 53.33609 | -2.85570 | 91 ft | 5 kts | 91° |
| 2026-05-03 22:55 | 53.33571 | -2.85511 | 93 ft | 11 kts | 170° |
| 2026-05-03 22:56 | 53.33506 | -2.85551 | 89 ft | 10 kts | 248° |
| 2026-05-03 22:56 | 53.33498 | -2.85664 | 92 ft | 9 kts | 265° |
| 2026-05-03 22:56 | 53.33492 | -2.85814 | 89 ft | 19 kts | 265° |
| 2026-05-03 22:56 | 53.33481 | -2.86047 | 91 ft | 20 kts | 265° |
| 2026-05-03 22:57 | 53.33467 | -2.86335 | 91 ft | 28 kts | 265° |
| 2026-05-03 22:57 | 53.33454 | -2.86596 | 89 ft | 10 kts | 265° |
| 2026-05-03 22:57 | 53.33429 | -2.86695 | 90 ft | 9 kts | 230° |
| 2026-05-03 22:57 | 53.33375 | -2.86731 | 92 ft | 8 kts | 182° |
| 2026-05-03 22:58 | 53.33308 | -2.86676 | 92 ft | 14 kts | 135° |
| 2026-05-03 22:58 | 53.33293 | -2.86491 | 87 ft | 20 kts | 85° |
| 2026-05-03 22:58 | 53.33316 | -2.85998 | 89 ft | 76 kts | 85° |
| 2026-05-03 22:58 | 53.33376 | -2.84742 | 90 ft | 137 kts | 85° |
| 2026-05-03 22:59 | 53.33437 | -2.83022 | 509 ft | 151 kts | 85° |
| 2026-05-03 22:59 | 53.33514 | -2.81311 | 1284 ft | 150 kts | 83° |
| 2026-05-03 22:59 | 53.33680 | -2.79466 | 1726 ft | 171 kts | 71° |
| 2026-05-03 22:59 | 53.34259 | -2.77603 | 2122 ft | 193 kts | 51° |
| 2026-05-03 23:00 | 53.35350 | -2.76112 | 2553 ft | 214 kts | 28° |
| 2026-05-03 23:00 | 53.36869 | -2.75519 | 3123 ft | 234 kts | 360° |
| 2026-05-03 23:00 | 53.38470 | -2.76232 | 3849 ft | 253 kts | 332° |
| 2026-05-03 23:00 | 53.39818 | -2.78435 | 4046 ft | 297 kts | 300° |
| 2026-05-03 23:01 | 53.40392 | -2.81943 | 4005 ft | 319 kts | 269° |
| 2026-05-03 23:01 | 53.39922 | -2.85507 | 4015 ft | 326 kts | 247° |
| 2026-05-03 23:01 | 53.38994 | -2.89195 | 4012 ft | 361 kts | 248° |
| 2026-05-03 23:01 | 53.38347 | -2.93358 | 3995 ft | 364 kts | 263° |
| 2026-05-03 23:02 | 53.38341 | -2.97416 | 4006 ft | 329 kts | 273° |
| 2026-05-03 23:02 | 53.38507 | -3.01009 | 3997 ft | 291 kts | 275° |
| 2026-05-03 23:02 | 53.38694 | -3.04356 | 4013 ft | 302 kts | 275° |
| 2026-05-03 23:02 | 53.38899 | -3.08047 | 4008 ft | 333 kts | 275° |